Time;durP1;ratioP1;P1;durP2;ratioP2;P2;SDS_P1;SDS_P2;PMS_P1;PMS_P2;Temp;Humidity;BMP_temperature;BMP_pressure;BME280_temperature;BME280_humidity;BME280_pressure;Samples;Min_cycle;Max_cycle;Signal;HPM_P1;HPM_P2
2021/07/06 04:15:47;;;;;;;4.07;2.95;;;;;;;14.02;100.00;98087.00;5774627;23;20102;-71
2021/07/06 04:18:12;;;;;;;3.28;2.50;;;;;;;14.11;100.00;98089.16;4934810;29;20432;-71
2021/07/06 04:20:38;;;;;;;3.42;2.50;;;;;;;14.09;100.00;98091.00;4934680;29;20020;-71
2021/07/06 04:23:03;;;;;;;8.27;2.88;;;;;;;14.14;100.00;98096.88;4934765;29;20032;-71
2021/07/06 04:25:30;;;;;;;7.25;3.00;;;;;;;14.16;100.00;98099.38;4934558;29;20035;-71
2021/07/06 04:27:56;;;;;;;8.38;2.95;;;;;;;14.14;100.00;98096.88;4934381;29;20392;-71
2021/07/06 04:30:21;;;;;;;3.38;2.72;;;;;;;14.26;99.83;98102.44;4935060;29;20031;-69
2021/07/06 04:32:46;;;;;;;7.82;2.90;;;;;;;14.23;99.62;98103.44;4933191;29;20028;-69
2021/07/06 04:35:12;;;;;;;6.55;2.92;;;;;;;14.26;99.36;98105.88;4934418;29;20035;-69
2021/07/06 04:37:37;;;;;;;3.60;2.70;;;;;;;14.29;99.30;98104.94;4934408;29;20039;-69
2021/07/06 04:40:03;;;;;;;5.53;3.10;;;;;;;14.34;99.12;98092.53;4934451;29;20023;-70
2021/07/06 04:42:29;;;;;;;6.82;2.95;;;;;;;14.33;99.10;98083.03;4934516;29;20027;-69
2021/07/06 04:44:54;;;;;;;6.07;2.90;;;;;;;14.47;98.48;98069.38;4934618;29;20102;-70
2021/07/06 04:47:20;;;;;;;4.43;2.78;;;;;;;14.53;98.16;98072.59;4934276;29;20034;-69
2021/07/06 04:49:45;;;;;;;5.28;2.90;;;;;;;14.58;98.13;98075.00;4934295;29;20024;-69
2021/07/06 04:52:10;;;;;;;6.35;2.67;;;;;;;14.68;97.82;98070.19;4934562;29;20111;-69
2021/07/06 04:54:36;;;;;;;8.68;2.83;;;;;;;14.83;97.58;98072.09;4933064;29;20421;-70
2021/07/06 04:57:01;;;;;;;4.72;2.80;;;;;;;14.96;96.45;98074.97;4934121;29;20044;-70
2021/07/06 04:59:26;;;;;;;3.53;2.50;;;;;;;15.06;95.76;98071.03;4933040;29;20392;-69
2021/07/06 05:01:52;;;;;;;8.00;3.08;;;;;;;15.17;95.28;98055.69;4934380;29;20473;-70
2021/07/06 05:04:17;;;;;;;4.95;2.47;;;;;;;15.23;94.68;98046.72;4934132;29;20061;-70
2021/07/06 05:06:43;;;;;;;5.63;2.40;;;;;;;15.45;93.99;98047.38;4934061;29;20552;-69
2021/07/06 05:09:08;;;;;;;3.05;2.25;;;;;;;15.73;92.79;98046.03;4934078;29;20032;-69
2021/07/06 05:11:34;;;;;;;5.25;2.30;;;;;;;15.87;91.23;98054.00;4934222;29;20038;-69
2021/07/06 05:14:01;;;;;;;10.20;3.70;;;;;;;16.01;90.80;98056.75;4934350;29;20746;-69
2021/07/06 05:16:26;;;;;;;2.72;2.30;;;;;;;16.17;90.34;98052.41;4937386;29;20028;-69
2021/07/06 05:18:52;;;;;;;4.90;2.53;;;;;;;16.25;89.66;98059.03;4937593;29;20031;-70
2021/07/06 05:21:17;;;;;;;5.60;1.98;;;;;;;16.43;89.42;98060.63;4937489;29;20115;-70
2021/07/06 05:23:43;;;;;;;3.50;2.10;;;;;;;16.41;89.16;98065.13;4937413;29;20119;-70
2021/07/06 05:26:08;;;;;;;7.93;2.30;;;;;;;16.19;89.33;98063.63;4937091;29;20095;-69
2021/07/06 05:28:34;;;;;;;4.88;1.92;;;;;;;16.14;89.67;98063.00;4937358;29;20031;-69
2021/07/06 05:31:01;;;;;;;2.53;2.03;;;;;;;16.14;89.94;98057.78;4937355;29;20054;-69
2021/07/06 05:33:26;;;;;;;3.78;2.10;;;;;;;16.18;89.93;98059.31;4937394;29;20620;-70
2021/07/06 05:35:52;;;;;;;6.18;2.13;;;;;;;16.19;90.05;98060.16;4937134;29;20035;-69
2021/07/06 05:38:17;;;;;;;4.20;2.03;;;;;;;16.35;90.35;98055.00;4937136;29;20032;-70
2021/07/06 05:40:43;;;;;;;3.35;2.45;;;;;;;16.37;89.77;98047.91;4937141;29;20473;-70
2021/07/06 05:43:09;;;;;;;3.55;2.20;;;;;;;16.48;88.96;98042.94;4937014;29;20038;-70
2021/07/06 05:45:35;;;;;;;3.47;2.13;;;;;;;16.57;88.37;98024.13;4936861;29;20034;-69
2021/07/06 05:48:01;;;;;;;11.02;2.50;;;;;;;16.78;87.86;98021.28;4937036;29;20408;-70
2021/07/06 05:50:27;;;;;;;4.72;1.90;;;;;;;16.87;87.17;98010.31;4937036;29;20019;-70
2021/07/06 05:52:52;;;;;;;3.33;1.77;;;;;;;16.89;87.10;98011.09;4936986;29;20043;-70
2021/07/06 05:55:17;;;;;;;4.57;2.20;;;;;;;17.06;86.86;98018.84;4937240;29;20035;-70
2021/07/06 05:57:43;;;;;;;4.45;2.60;;;;;;;17.25;86.23;98028.25;4936709;29;20043;-70
2021/07/06 06:00:11;;;;;;;3.97;2.47;;;;;;;17.43;85.23;98032.44;4936763;29;20073;-70
2021/07/06 06:02:37;;;;;;;3.42;2.10;;;;;;;17.62;84.58;98046.16;4936807;29;20079;-69
2021/07/06 06:05:04;;;;;;;5.50;2.30;;;;;;;17.75;83.81;98035.84;4936750;29;20055;-69
2021/07/06 06:07:29;;;;;;;5.60;1.83;;;;;;;17.94;83.76;98033.00;4890256;28;20106;-70
2021/07/06 06:09:55;;;;;;;1.98;1.75;;;;;;;18.12;82.28;98024.00;4956243;28;20078;-70
2021/07/06 06:12:20;;;;;;;3.38;1.80;;;;;;;18.31;81.69;98028.13;4955603;28;20042;-70
2021/07/06 06:14:46;;;;;;;2.30;1.65;;;;;;;18.64;81.46;98031.28;4956065;28;20146;-70
2021/07/06 06:17:11;;;;;;;7.40;1.63;;;;;;;18.71;79.12;98043.13;4955339;28;20036;-70
2021/07/06 06:19:36;;;;;;;6.55;1.60;;;;;;;18.90;79.44;98049.81;4955664;28;20031;-70
2021/07/06 06:22:02;;;;;;;3.05;1.80;;;;;;;19.15;77.97;98055.19;4955476;28;20090;-70
2021/07/06 06:24:28;;;;;;;2.90;1.83;;;;;;;19.30;77.75;98061.25;4955999;28;20030;-70
2021/07/06 06:26:53;;;;;;;9.68;1.60;;;;;;;19.50;78.43;98062.56;4953963;28;20046;-70
2021/07/06 06:29:19;;;;;;;3.63;1.70;;;;;;;19.75;75.78;98057.38;4954128;28;20106;-70
2021/07/06 06:31:45;;;;;;;3.47;1.50;;;;;;;20.05;74.94;98064.16;4955307;28;20031;-70
2021/07/06 06:34:11;;;;;;;1.95;1.15;;;;;;;20.24;74.20;98053.22;4955370;28;20035;-70
2021/07/06 06:36:36;;;;;;;1.60;1.20;;;;;;;20.36;73.60;98048.91;4955260;28;20070;-68
2021/07/06 06:39:02;;;;;;;6.15;1.27;;;;;;;20.71;73.01;98049.94;4955299;28;20440;-68
2021/07/06 06:41:28;;;;;;;2.80;1.25;;;;;;;20.99;72.48;98040.91;4955274;28;20481;-68
2021/07/06 06:43:53;;;;;;;2.00;1.40;;;;;;;21.26;72.11;98037.19;4953900;28;20058;-69
2021/07/06 06:46:22;;;;;;;10.43;6.85;;;;;;;21.61;70.38;98037.25;4954975;28;20057;-68
2021/07/06 06:48:48;;;;;;;5.05;1.85;;;;;;;21.89;70.01;98027.25;4955078;28;20030;-71
2021/07/06 06:51:14;;;;;;;3.15;1.70;;;;;;;22.27;68.93;98030.47;4953894;28;20024;-69
2021/07/06 06:53:41;;;;;;;5.93;1.40;;;;;;;22.91;67.15;98015.78;4952981;28;20097;-70
2021/07/06 06:56:07;;;;;;;3.30;1.33;;;;;;;23.63;63.80;98005.41;4949332;28;20019;-69
2021/07/06 06:58:33;;;;;;;1.00;0.90;;;;;;;25.06;57.40;98018.66;4954770;28;20110;-68
2021/07/06 07:00:59;;;;;;;1.15;1.00;;;;;;;26.96;52.18;98021.38;4954910;28;20240;-69
2021/07/06 07:03:25;;;;;;;2.92;1.00;;;;;;;28.45;47.56;98026.00;4953971;28;20027;-69
2021/07/06 07:05:52;;;;;;;4.63;1.13;;;;;;;29.88;43.34;98037.38;4954480;28;20361;-69
2021/07/06 07:08:18;;;;;;;2.28;0.88;;;;;;;30.78;42.31;98037.22;4944296;28;20024;-69
2021/07/06 07:10:43;;;;;;;1.27;0.80;;;;;;;30.56;40.84;98037.91;4946482;29;20025;-69
2021/07/06 07:13:08;;;;;;;1.98;0.90;;;;;;;31.99;38.65;98045.47;4953354;28;20034;-69
2021/07/06 07:15:35;;;;;;;2.75;0.95;;;;;;;33.00;37.79;98057.50;4953118;28;20113;-69
2021/07/06 07:18:01;;;;;;;5.63;0.90;;;;;;;34.91;33.66;98063.91;4954555;28;20110;-70
2021/07/06 07:20:26;;;;;;;1.80;0.77;;;;;;;32.93;36.26;98070.00;4954418;28;20103;-70
2021/07/06 07:22:52;;;;;;;1.42;1.00;;;;;;;32.08;39.18;98069.53;4954370;28;20035;-70
2021/07/06 07:25:20;;;;;;;0.93;0.70;;;;;;;33.76;34.86;98059.78;4954351;28;20075;-70
2021/07/06 07:27:46;;;;;;;0.97;0.43;;;;;;;35.83;31.90;98055.31;4953428;28;20024;-71
2021/07/06 07:30:13;;;;;;;4.55;0.70;;;;;;;32.06;36.53;98055.47;4954334;28;20045;-70
2021/07/06 07:32:39;;;;;;;1.02;0.60;;;;;;;29.80;41.43;98045.41;4953045;29;20412;-70
2021/07/06 07:35:05;;;;;;;4.03;0.63;;;;;;;29.76;41.56;98049.41;4954544;28;20027;-70
2021/07/06 07:37:30;;;;;;;3.58;0.60;;;;;;;31.28;38.00;98035.94;4952365;28;20039;-70
2021/07/06 07:39:56;;;;;;;0.65;0.60;;;;;;;32.03;36.80;98034.41;4953903;28;20023;-70
2021/07/06 07:42:21;;;;;;;0.85;0.70;;;;;;;33.70;33.99;98039.03;4954192;28;20512;-71
2021/07/06 07:44:47;;;;;;;0.85;0.60;;;;;;;34.77;32.32;98036.13;4952899;28;20031;-70
2021/07/06 07:47:13;;;;;;;0.55;0.55;;;;;;;34.10;32.98;98039.41;4953943;28;20054;-70
2021/07/06 07:49:38;;;;;;;1.45;0.80;;;;;;;32.55;35.81;98029.03;4952808;28;20569;-70
2021/07/06 07:52:04;;;;;;;3.75;0.60;;;;;;;34.88;31.79;98024.78;4954130;28;20034;-71
2021/07/06 07:54:29;;;;;;;2.85;0.85;;;;;;;35.44;30.79;98027.25;4954070;28;20023;-70
2021/07/06 07:56:55;;;;;;;0.80;0.60;;;;;;;36.50;28.65;98015.63;4952596;28;20499;-71
2021/07/06 07:59:21;;;;;;;1.55;0.77;;;;;;;36.54;28.90;98017.69;4953735;28;20109;-70
2021/07/06 08:01:46;;;;;;;0.85;0.52;;;;;;;36.01;29.36;98028.56;4952819;28;20062;-70
2021/07/06 08:04:12;;;;;;;1.27;0.63;;;;;;;37.39;28.22;98036.50;4953843;28;20063;-70
2021/07/06 08:06:37;;;;;;;0.73;0.70;;;;;;;35.34;31.01;98025.97;4953504;28;20058;-70
2021/07/06 08:09:03;;;;;;;0.90;0.68;;;;;;;34.34;31.95;98025.50;4952456;29;20081;-71
2021/07/06 08:11:29;;;;;;;1.95;0.68;;;;;;;34.17;32.31;98013.38;4952264;29;20038;-70
2021/07/06 08:13:54;;;;;;;1.27;0.60;;;;;;;32.75;35.03;98013.19;4952710;28;20046;-70
2021/07/06 08:16:20;;;;;;;1.67;0.40;;;;;;;32.97;34.75;98012.22;4952737;28;20472;-70
2021/07/06 08:18:45;;;;;;;1.67;0.70;;;;;;;32.94;34.19;98007.25;4953592;28;20027;-70
2021/07/06 08:21:11;;;;;;;0.82;0.50;;;;;;;33.38;34.12;98013.50;4953778;28;20023;-70
2021/07/06 08:23:36;;;;;;;4.28;0.50;;;;;;;35.20;29.76;97987.38;4953021;28;20054;-70
2021/07/06 08:26:02;;;;;;;0.60;0.60;;;;;;;33.68;33.97;97988.16;4953096;28;20027;-70
2021/07/06 08:28:27;;;;;;;1.30;0.60;;;;;;;33.54;33.92;98001.69;4953773;28;20535;-70
2021/07/06 08:30:54;;;;;;;0.60;0.52;;;;;;;32.60;34.00;98015.06;4953588;28;20484;-69
2021/07/06 08:33:19;;;;;;;3.78;1.00;;;;;;;34.25;31.94;98005.16;4953550;28;20028;-70
2021/07/06 08:35:46;;;;;;;2.35;0.57;;;;;;;33.50;33.47;98018.19;4952430;28;20469;-70
2021/07/06 08:38:15;;;;;;;1.45;0.75;;;;;;;35.19;29.12;98018.88;4953381;28;20054;-70
2021/07/06 08:40:42;;;;;;;2.05;0.93;;;;;;;35.45;30.37;98028.94;4953653;28;20067;-70
2021/07/06 08:43:08;;;;;;;0.85;0.80;;;;;;;36.18;28.93;98045.16;4953680;28;20027;-70
2021/07/06 08:45:34;;;;;;;1.10;0.30;;;;;;;33.19;31.65;98060.59;4953391;28;20027;-70
2021/07/06 08:47:59;;;;;;;1.02;0.50;;;;;;;33.49;32.98;98067.56;4952562;28;20034;-70
2021/07/06 08:50:25;;;;;;;0.60;0.60;;;;;;;34.57;32.60;98067.47;4957034;28;20027;-70
2021/07/06 08:52:52;;;;;;;2.33;1.08;;;;;;;36.25;29.89;98088.31;4957164;28;20064;-70
2021/07/06 08:55:19;;;;;;;9.07;6.50;;;;;;;36.07;29.33;98101.59;4956904;28;20030;-70
2021/07/06 08:57:46;;;;;;;4.63;1.00;;;;;;;34.35;32.07;98118.63;4956528;28;20027;-70
2021/07/06 09:00:15;;;;;;;2.08;1.13;;;;;;;33.99;32.79;98124.09;4954147;28;20353;-70
2021/07/06 09:02:40;;;;;;;0.90;0.63;;;;;;;33.57;33.49;98119.53;4957001;28;20031;-70
2021/07/06 09:05:19;;;;;;;2.15;0.80;;;;;;;34.08;32.78;98117.56;4956760;28;20382;-70
2021/07/06 09:07:44;;;;;;;3.33;1.00;;;;;;;34.19;32.40;98124.31;4956975;28;20062;-69
2021/07/06 09:10:17;;;;;;;3.33;1.60;;;;;;;32.69;36.87;98137.38;4956005;28;20050;-70
2021/07/06 09:12:45;;;;;;;3.78;0.88;;;;;;;32.34;36.92;98145.03;4964636;28;20101;-70
2021/07/06 09:15:33;;;;;;;3.40;0.93;;;;;;;31.87;38.36;98154.13;4956597;28;20049;-69
2021/07/06 09:18:11;;;;;;;5.18;0.95;;;;;;;33.56;35.59;98161.69;4956838;28;20046;-69
2021/07/06 09:20:39;;;;;;;6.18;1.20;;;;;;;31.23;39.16;98162.28;4956034;28;20055;-70
2021/07/06 09:23:21;;;;;;;1.15;0.77;;;;;;;30.59;39.92;98168.63;4965470;28;20023;-69
2021/07/06 09:25:47;;;;;;;2.95;0.68;;;;;;;32.60;37.67;98181.41;4940853;29;20034;-69
2021/07/06 09:28:23;;;;;;;7.00;0.90;;;;;;;31.60;38.46;98184.91;4956196;28;20031;-69
2021/07/06 09:30:49;;;;;;;0.60;0.60;;;;;;;30.46;40.82;98196.75;4956352;28;20050;-69
2021/07/06 09:33:28;;;;;;;3.22;0.70;;;;;;;28.80;44.02;98204.47;4963124;28;20070;-69
2021/07/06 09:35:54;;;;;;;1.15;0.40;;;;;;;28.32;45.50;98218.25;4941666;29;20074;-69
2021/07/06 09:38:19;;;;;;;6.15;0.90;;;;;;;27.08;48.94;98254.28;4954818;28;20110;-70
2021/07/06 09:40:45;;;;;;;5.03;1.27;;;;;;;25.19;54.36;98286.25;4956351;28;20110;-69
2021/07/06 09:43:26;;;;;;;6.88;1.20;;;;;;;24.22;57.52;98319.88;4956038;28;20050;-70
2021/07/06 09:45:54;;;;;;;2.20;1.58;;;;;;;23.21;60.27;98301.44;4955306;28;20039;-70
2021/07/06 09:48:20;;;;;;;2.60;1.20;;;;;;;23.22;61.94;98319.00;4956153;28;20061;-69
2021/07/06 09:50:46;;;;;;;1.60;1.33;;;;;;;23.33;61.44;98347.22;4961743;28;20480;-70
2021/07/06 09:53:31;;;;;;;2.83;1.30;;;;;;;22.70;63.38;98338.75;4960558;28;20083;-69
2021/07/06 09:55:57;;;;;;;3.20;1.30;;;;;;;22.57;64.27;98343.25;4954917;28;20038;-69
2021/07/06 09:58:23;;;;;;;1.40;0.77;;;;;;;22.42;63.70;98344.38;4955898;28;20035;-69
2021/07/06 10:00:51;;;;;;;5.90;1.08;;;;;;;22.31;63.36;98353.09;4955265;28;20019;-69
2021/07/06 10:03:17;;;;;;;0.73;0.68;;;;;;;22.40;62.69;98338.41;4955944;28;20366;-70
2021/07/06 10:05:43;;;;;;;6.30;0.82;;;;;;;22.02;63.07;98336.69;4954433;29;20034;-70
2021/07/06 10:08:10;;;;;;;7.13;0.70;;;;;;;22.46;62.03;98341.41;4954670;28;20023;-69
2021/07/06 10:10:36;;;;;;;0.68;0.50;;;;;;;22.59;61.30;98344.00;4955755;28;20018;-71
2021/07/06 10:13:02;;;;;;;1.70;0.75;;;;;;;22.83;61.03;98344.81;4955564;28;20031;-69
2021/07/06 10:15:27;;;;;;;1.65;0.77;;;;;;;22.21;63.23;98321.25;4952210;28;20525;-69
2021/07/06 10:17:53;;;;;;;1.10;0.55;;;;;;;23.52;58.73;98305.19;4958910;28;20020;-69
2021/07/06 10:20:26;;;;;;;0.45;0.30;;;;;;;26.46;51.12;98285.66;4954300;28;20027;-69
2021/07/06 10:22:54;;;;;;;6.15;2.83;;;;;;;28.68;45.20;98283.91;4955589;28;20031;-69
2021/07/06 10:25:28;;;;;;;1.13;0.60;;;;;;;27.05;48.80;98291.75;4954806;28;20031;-70
2021/07/06 10:27:58;;;;;;;0.30;0.30;;;;;;;26.12;50.20;98293.16;4965560;28;20025;-69
2021/07/06 10:30:27;;;;;;;1.98;0.57;;;;;;;26.20;50.60;98303.91;4955620;23;20044;-73
2021/07/06 10:32:53;;;;;;;;;;;;;;;26.43;48.66;98296.56;4936576;29;20035;-73
2021/07/06 10:35:54;;;;;;;3.03;0.47;;;;;;;27.45;47.41;98293.34;4936007;29;19915;-73
2021/07/06 10:40:55;;;;;;;3.10;0.28;;;;;;;28.68;43.05;98283.09;4934770;29;20041;-73
2021/07/06 10:43:42;;;;;;;2.30;0.30;;;;;;;28.45;43.86;98301.38;4935456;29;20024;-73
2021/07/06 10:46:30;;;;;;;0.65;0.40;;;;;;;25.03;51.32;98289.31;4935703;29;20035;-73
2021/07/06 10:49:11;;;;;;;0.40;0.40;;;;;;;26.06;49.87;98275.09;4935738;29;20111;-73
2021/07/06 10:51:37;;;;;;;0.30;0.30;;;;;;;26.17;49.89;98268.84;4935696;29;20027;-73
2021/07/06 10:54:03;;;;;;;0.30;0.30;;;;;;;25.81;50.76;98248.09;4935108;29;20030;-73
2021/07/06 10:56:34;;;;;;;0.40;0.40;;;;;;;25.94;50.54;98247.00;4934269;28;20027;-73
2021/07/06 10:59:02;;;;;;;0.30;0.30;;;;;;;25.89;50.17;98255.38;4934321;28;20031;-73
2021/07/06 11:01:37;;;;;;;1.85;0.50;;;;;;;24.94;52.62;98241.56;4930182;29;20522;-73
2021/07/06 11:04:03;;;;;;;0.65;0.40;;;;;;;24.95;51.25;98237.91;4924320;29;20040;-73
2021/07/06 11:07:00;;;;;;;0.52;0.52;;;;;;;25.59;51.79;98261.56;4923844;29;20026;-73
2021/07/06 11:09:35;;;;;;;0.55;0.50;;;;;;;26.45;48.55;98265.41;4910465;29;20047;-73
2021/07/06 11:12:24;;;;;;;0.40;0.40;;;;;;;26.16;50.38;98262.69;4924477;29;20432;-73
2021/07/06 11:14:51;;;;;;;3.92;1.20;;;;;;;26.61;49.73;98273.63;4925570;29;20031;-73
2021/07/06 11:17:57;;;;;;;2.17;0.50;;;;;;;27.01;47.43;98277.06;4923968;29;20040;-73
2021/07/06 11:20:37;;;;;;;2.45;0.90;;;;;;;27.18;47.38;98275.53;4925075;29;20040;-73
2021/07/06 11:23:04;;;;;;;1.40;0.77;;;;;;;27.76;45.42;98269.97;4922726;29;20054;-73
2021/07/06 11:25:35;;;;;;;0.50;0.50;;;;;;;27.44;46.33;98281.03;4924510;29;20124;-73
2021/07/06 11:28:18;;;;;;;3.70;0.52;;;;;;;26.72;49.18;98274.44;4922082;29;20456;-73
2021/07/06 11:30:48;;;;;;;4.57;0.65;;;;;;;27.14;48.01;98272.31;4924042;29;20032;-73
2021/07/06 11:33:16;;;;;;;8.75;6.95;;;;;;;27.77;45.78;98261.00;4924249;29;20051;-73
2021/07/06 11:35:45;;;;;;;0.60;0.60;;;;;;;28.51;45.30;98258.09;4924629;29;20087;-73
2021/07/06 11:38:13;;;;;;;2.08;0.73;;;;;;;27.95;44.92;98263.69;4921185;29;20500;-73
2021/07/06 11:40:41;;;;;;;1.87;1.63;;;;;;;27.42;47.25;98258.06;4924933;29;20036;-73
2021/07/06 11:43:09;;;;;;;0.73;0.70;;;;;;;26.88;49.15;98280.00;4924528;29;20088;-73
2021/07/06 11:45:36;;;;;;;2.47;0.85;;;;;;;26.88;49.60;98285.34;4925117;29;20035;-73
2021/07/06 11:48:12;;;;;;;1.45;0.80;;;;;;;26.64;48.81;98293.75;4923546;29;20283;-73
2021/07/06 11:50:40;;;;;;;4.75;1.10;;;;;;;25.74;51.31;98293.88;4923483;29;20034;-73
2021/07/06 11:53:06;;;;;;;2.55;0.60;;;;;;;25.22;52.34;98299.22;4923917;29;20035;-73
2021/07/06 11:55:34;;;;;;;0.80;0.40;;;;;;;24.76;54.39;98305.75;4923248;29;20031;-72
2021/07/06 11:58:01;;;;;;;0.68;0.60;;;;;;;24.87;54.53;98300.41;4921135;29;20028;-73
2021/07/06 12:00:30;;;;;;;1.10;0.65;;;;;;;24.48;56.17;98314.31;4921959;29;20024;-73
2021/07/06 12:03:15;;;;;;;0.63;0.52;;;;;;;24.42;56.56;98313.03;4922232;29;20039;-73
2021/07/06 12:05:40;;;;;;;0.68;0.60;;;;;;;24.45;55.72;98315.41;4922426;29;20067;-73
2021/07/06 12:08:14;;;;;;;0.68;0.52;;;;;;;24.22;56.04;98337.59;4924409;29;20032;-72
2021/07/06 12:11:01;;;;;;;1.02;0.50;;;;;;;24.60;55.63;98355.69;4922852;29;20040;-72
2021/07/06 12:13:30;;;;;;;2.35;0.50;;;;;;;24.50;56.06;98362.69;4922911;29;20374;-72
2021/07/06 12:16:01;;;;;;;1.00;0.90;;;;;;;24.49;55.96;98358.38;4923348;29;20039;-72
2021/07/06 12:18:27;;;;;;;0.52;0.50;;;;;;;24.85;56.05;98344.75;4923193;29;20035;-73
2021/07/06 12:20:55;;;;;;;0.93;0.43;;;;;;;24.17;56.91;98353.84;4923323;29;20079;-72
2021/07/06 12:23:21;;;;;;;0.80;0.65;;;;;;;24.81;56.66;98351.28;4924227;29;20036;-72
2021/07/06 12:25:47;;;;;;;2.60;0.90;;;;;;;24.94;54.97;98348.41;4924971;29;20082;-72
2021/07/06 12:28:12;;;;;;;3.10;0.50;;;;;;;24.45;56.20;98341.06;4929442;29;20118;-72
2021/07/06 12:30:38;;;;;;;1.20;0.50;;;;;;;24.68;55.33;98337.34;4929456;29;20036;-72
2021/07/06 12:33:08;;;;;;;2.92;0.60;;;;;;;24.77;55.41;98330.44;4928174;29;20028;-73
2021/07/06 12:35:34;;;;;;;0.50;0.40;;;;;;;23.94;56.28;98333.69;4925649;29;20114;-73
2021/07/06 12:38:01;;;;;;;12.32;9.10;;;;;;;24.24;56.69;98323.28;4925925;29;21247;-73
2021/07/06 12:40:27;;;;;;;0.55;0.50;;;;;;;24.15;58.70;98323.19;4924971;29;20028;-73
2021/07/06 12:42:53;;;;;;;0.63;0.40;;;;;;;23.96;58.88;98329.09;4925094;29;20033;-73
2021/07/06 12:45:18;;;;;;;1.35;1.10;;;;;;;24.35;57.16;98341.75;4925708;29;20111;-73
2021/07/06 12:47:43;;;;;;;0.60;0.60;;;;;;;24.01;57.28;98348.09;4923947;29;20028;-73
2021/07/06 12:50:16;;;;;;;0.80;0.60;;;;;;;23.54;59.16;98344.72;4925874;29;20055;-73
2021/07/06 12:52:44;;;;;;;0.55;0.55;;;;;;;22.79;60.09;98353.91;4925477;29;20024;-73
2021/07/06 12:55:12;;;;;;;3.08;0.50;;;;;;;23.85;58.35;98357.28;4928173;29;20588;-73
2021/07/06 12:57:39;;;;;;;0.40;0.40;;;;;;;24.19;57.33;98367.81;4924467;29;20040;-73
2021/07/06 13:00:19;;;;;;;0.50;0.50;;;;;;;24.53;56.60;98350.06;4927064;29;20039;-73
2021/07/06 13:03:00;;;;;;;1.58;0.70;;;;;;;24.46;57.75;98356.81;4923776;29;20031;-73
2021/07/06 13:05:31;;;;;;;1.92;1.58;;;;;;;24.50;56.58;98366.19;4915037;28;20150;-73
2021/07/06 13:07:58;;;;;;;0.63;0.52;;;;;;;23.86;58.62;98360.75;4941724;29;20028;-73
2021/07/06 13:10:24;;;;;;;0.40;0.40;;;;;;;24.11;57.84;98343.75;4942284;28;20038;-73
2021/07/06 13:12:56;;;;;;;0.30;0.30;;;;;;;24.58;57.29;98365.56;4938331;28;20027;-73
2021/07/06 13:15:26;;;;;;;0.40;0.40;;;;;;;24.03;58.84;98372.63;4947927;29;20027;-70
2021/07/06 13:17:51;;;;;;;1.75;0.60;;;;;;;24.16;59.62;98378.63;4944018;28;20071;-70
2021/07/06 13:20:19;;;;;;;1.60;0.60;;;;;;;24.95;57.07;98381.94;4940892;28;20020;-70
2021/07/06 13:22:46;;;;;;;2.13;0.63;;;;;;;24.39;57.42;98381.28;4944621;28;20027;-70
2021/07/06 13:25:12;;;;;;;0.47;0.45;;;;;;;24.41;58.18;98389.94;4943908;28;20031;-70
2021/07/06 13:27:40;;;;;;;0.47;0.47;;;;;;;23.42;61.16;98395.94;4944024;29;20035;-71
2021/07/06 13:30:12;;;;;;;0.40;0.40;;;;;;;23.84;60.01;98400.56;4942327;28;20035;-72
2021/07/06 13:32:46;;;;;;;2.63;2.40;;;;;;;23.36;61.30;98409.63;4941707;28;20027;-72
2021/07/06 13:35:14;;;;;;;0.65;0.52;;;;;;;22.81;62.76;98425.97;4939500;28;20405;-72
2021/07/06 13:37:41;;;;;;;2.45;0.50;;;;;;;22.86;63.65;98422.16;4944904;29;21123;-72
2021/07/06 13:40:09;;;;;;;1.02;0.50;;;;;;;23.11;61.76;98405.34;4942794;28;20027;-71
2021/07/06 13:42:36;;;;;;;1.23;0.60;;;;;;;23.14;60.81;98398.03;4943464;29;20505;-72
2021/07/06 13:45:02;;;;;;;0.73;0.43;;;;;;;23.58;60.38;98388.50;4939716;28;20400;-72
2021/07/06 13:47:27;;;;;;;0.40;0.40;;;;;;;23.65;60.46;98389.75;4945270;28;20035;-73
2021/07/06 13:49:53;;;;;;;4.95;0.70;;;;;;;23.06;61.66;98403.03;4944487;29;20453;-72
2021/07/06 13:52:19;;;;;;;0.95;0.30;;;;;;;22.77;62.47;98403.41;4944462;29;20078;-72
2021/07/06 13:54:44;;;;;;;2.20;0.50;;;;;;;23.52;59.59;98408.31;4944797;28;20461;-72
2021/07/06 13:57:13;;;;;;;0.40;0.40;;;;;;;23.49;60.93;98399.78;4942327;29;20058;-73
2021/07/06 13:59:38;;;;;;;0.40;0.40;;;;;;;22.88;61.72;98410.53;4944091;28;20393;-73
2021/07/06 14:02:04;;;;;;;1.05;0.50;;;;;;;22.77;62.53;98398.13;4942980;28;20027;-73
2021/07/06 14:04:29;;;;;;;0.98;0.52;;;;;;;23.24;60.83;98390.25;4942775;28;21415;-71
2021/07/06 14:06:57;;;;;;;2.75;0.90;;;;;;;23.36;61.47;98393.75;4942391;28;20038;-71
2021/07/06 14:09:23;;;;;;;2.72;0.50;;;;;;;23.96;59.78;98388.16;4944852;28;20065;-71
2021/07/06 14:11:49;;;;;;;0.60;0.50;;;;;;;23.94;59.48;98394.56;4947192;28;20089;-71
2021/07/06 14:14:14;;;;;;;0.63;0.47;;;;;;;23.97;59.59;98394.31;4945362;29;20105;-71
2021/07/06 14:16:39;;;;;;;0.70;0.70;;;;;;;24.44;60.13;98376.44;4940552;28;20038;-71
2021/07/06 14:19:05;;;;;;;0.50;0.50;;;;;;;24.70;57.69;98377.78;4944716;29;20104;-71
2021/07/06 14:21:31;;;;;;;0.50;0.50;;;;;;;24.77;58.54;98380.81;4942206;29;20081;-71
2021/07/06 14:23:57;;;;;;;0.57;0.57;;;;;;;24.86;59.83;98378.22;4943026;29;20036;-71
2021/07/06 14:26:22;;;;;;;1.48;0.55;;;;;;;24.58;58.26;98368.22;4944492;29;20077;-71
2021/07/06 14:28:51;;;;;;;1.08;0.65;;;;;;;23.61;59.93;98377.69;4943530;28;20106;-71
2021/07/06 14:31:20;;;;;;;1.48;0.60;;;;;;;23.21;61.58;98367.53;4946459;29;20090;-71
2021/07/06 14:33:45;;;;;;;1.40;0.60;;;;;;;23.24;62.58;98364.63;4944492;28;20046;-71
2021/07/06 14:36:11;;;;;;;0.50;0.50;;;;;;;23.37;63.59;98366.34;4944248;29;20038;-71
2021/07/06 14:38:36;;;;;;;2.17;0.70;;;;;;;23.31;62.65;98368.50;4945125;28;20026;-71
2021/07/06 14:41:03;;;;;;;1.25;0.60;;;;;;;22.92;64.68;98368.88;4943099;29;20110;-72
2021/07/06 14:43:28;;;;;;;0.50;0.50;;;;;;;22.60;65.85;98358.88;4943484;29;20066;-72
2021/07/06 14:45:54;;;;;;;1.27;0.65;;;;;;;22.66;66.30;98355.78;4942369;28;20161;-72
2021/07/06 14:48:19;;;;;;;0.88;0.70;;;;;;;23.04;63.77;98352.09;4943412;28;20031;-72
2021/07/06 14:50:44;;;;;;;0.32;0.32;;;;;;;22.93;65.39;98354.72;4943121;28;20090;-72
2021/07/06 14:53:10;;;;;;;1.08;0.50;;;;;;;22.75;66.36;98352.47;4943299;28;20485;-73
2021/07/06 14:55:37;;;;;;;1.85;0.63;;;;;;;22.62;66.82;98356.13;4942737;28;20035;-72
2021/07/06 14:58:02;;;;;;;0.80;0.50;;;;;;;22.51;67.64;98351.63;4940932;29;20497;-72
2021/07/06 15:00:32;;;;;;;0.60;0.60;;;;;;;22.33;70.71;98346.75;4943172;29;20042;-72
2021/07/06 15:02:59;;;;;;;1.27;0.60;;;;;;;21.78;71.26;98340.13;4944823;29;20085;-72
2021/07/06 15:05:25;;;;;;;3.53;0.70;;;;;;;22.08;71.53;98330.97;4943911;29;20509;-72
2021/07/06 15:07:50;;;;;;;0.63;0.60;;;;;;;22.48;70.42;98343.94;4941352;28;20039;-72
2021/07/06 15:10:16;;;;;;;1.23;0.65;;;;;;;22.53;69.48;98344.44;4945284;28;20105;-72
2021/07/06 15:12:41;;;;;;;1.55;0.80;;;;;;;21.98;70.03;98336.06;4945350;29;20031;-73
2021/07/06 15:15:07;;;;;;;0.82;0.82;;;;;;;22.02;71.43;98341.97;4940660;29;20114;-73
2021/07/06 15:17:33;;;;;;;2.03;0.75;;;;;;;21.85;73.24;98337.88;4942285;28;20118;-73
2021/07/06 15:19:58;;;;;;;1.67;0.80;;;;;;;21.63;73.61;98327.19;4943337;28;20033;-73
2021/07/06 15:22:25;;;;;;;0.82;0.80;;;;;;;21.60;73.80;98325.59;4942546;29;20059;-73
2021/07/06 15:24:51;;;;;;;8.52;2.05;;;;;;;21.45;75.03;98334.59;4944794;29;20034;-73
2021/07/06 15:27:16;;;;;;;4.35;1.40;;;;;;;21.32;75.72;98336.38;4943402;28;20027;-73
2021/07/06 15:29:41;;;;;;;2.25;0.65;;;;;;;21.39;75.61;98327.13;4941760;28;20035;-73
2021/07/06 15:32:09;;;;;;;3.25;0.95;;;;;;;21.26;76.30;98317.38;4943217;28;20110;-73
2021/07/06 15:34:35;;;;;;;0.60;0.60;;;;;;;21.34;76.42;98302.88;4945334;28;20041;-72
2021/07/06 15:37:00;;;;;;;7.38;2.00;;;;;;;21.22;77.55;98321.16;4943165;28;20493;-72
2021/07/06 15:39:28;;;;;;;4.80;1.00;;;;;;;21.35;78.19;98336.19;4944237;28;20033;-73
2021/07/06 15:41:53;;;;;;;1.25;0.75;;;;;;;21.29;76.60;98340.88;4940339;29;20492;-72
2021/07/06 15:44:23;;;;;;;2.67;0.70;;;;;;;21.15;76.29;98346.25;4945648;28;20038;-72
2021/07/06 15:46:48;;;;;;;0.95;0.73;;;;;;;21.21;76.71;98366.06;4945593;29;20113;-71
2021/07/06 15:49:13;;;;;;;0.82;0.80;;;;;;;21.32;76.87;98368.84;4943277;29;20488;-72
2021/07/06 15:51:39;;;;;;;0.60;0.60;;;;;;;21.22;76.84;98375.66;4939394;28;20408;-72
2021/07/06 15:54:04;;;;;;;0.73;0.70;;;;;;;21.26;74.50;98385.03;4943875;28;20054;-71